Bei Facebook empfehlenBei Twitter postenGoogle plusPinterest

Das Wetter im Erzgebirge am 21.10.2016

Wetter und Klima am 21.10.2016 Holzhau im Erzgebirge (630m ü.NN)
Letzte gemessene Temperatur und Uhrzeit der Messung23:45:00 Uhr2.20 °C
Temperatur (Maximum / Höchstwert) und Uhrzeit der Messung13:30:00 Uhr6.30 °C
Temperatur (Minimum / Tiefstwert) und Uhrzeit der Messung21:30:001.90 °C
Errechneter Absolutwert der Temperaturschwankungen zwischen Tmin und Tmax des Tages4.40 K
Errechnete Tagesmitteltemperatur3.40833 °C
Gesamt - Niederschlag des Tages (in flüssiger Form)1.04 Liter / m²
Luftdruck (Maximum / Höchstwert) und Zeitpunkt der Messung23:30:00 Uhr1009.90 hPa
Luftdruck (Minimum / Tiefstwert) und Zeitpunkt der Messung05:45:00 Uhr1006.80 hPa
Errechneter Absolutwert der Luftdruckschwankungen des Tages3.10 hPa
Höchste gemessene Windgeschwindigkeit und Uhrzeit der Messung23:45:00 Uhr0.00 km/h
Errechnete Windhäufigkeit in Relation zu den Messwerten des Tages0.00000 %
Niedrigste Windkühle (Windchill) und Zeitpunkt der Messung21:30:00 Uhr1.90 °C
Taupunkt (Maximum / Höchstwert) und Uhrzeit der Messung13:30:00 Uhr5.60 °C
Taupunkt (Minimum / Tiefstwert) und Uhrzeit der Messung21:30:001.00 °C
Anzahl der automatisch eingelesenen Messwerte 96

Detaillierte Wetter- und Klima- Messwerte für den 21.10.2016 in Holzhau im Erzgebirge (630m ü.NN)
ZeitTemperaturLuftdruckRel. LuftfeuchteWindWindrichtungWindchillTaupunktNiederschlag l/m²
23:45:002.20 °C1009.80 hPa94.00 %1.30 °C1.04
23:30:002.30 °C1009.90 hPa94.00 %1.40 °C1.04
23:15:002.40 °C1009.90 hPa94.00 %1.50 °C1.04
23:00:002.40 °C1009.90 hPa94.00 %1.50 °C1.04
22:45:002.30 °C1009.80 hPa94.00 %1.40 °C1.04
22:30:002.30 °C1009.90 hPa94.00 %1.40 °C1.04
22:15:002.20 °C1009.80 hPa94.00 %1.30 °C1.04
22:00:002.10 °C1009.70 hPa94.00 %1.20 °C1.04
21:45:002.10 °C1009.60 hPa94.00 %1.20 °C1.04
21:30:001.90 °C1009.60 hPa94.00 %1.00 °C1.04
21:15:002.10 °C1009.70 hPa93.00 %1.10 °C1.04
21:00:002.10 °C1009.80 hPa93.00 %1.10 °C1.04
20:45:002.10 °C1009.70 hPa93.00 %1.10 °C1.04
20:30:002.10 °C1009.80 hPa93.00 %1.10 °C1.04
20:15:002.10 °C1009.60 hPa93.00 %1.10 °C1.04
20:00:002.30 °C1009.50 hPa93.00 %1.30 °C1.04
19:45:002.30 °C1009.50 hPa93.00 %1.30 °C1.04
19:30:002.30 °C1009.50 hPa92.00 %1.10 °C1.04
19:15:002.70 °C1009.60 hPa93.00 %1.70 °C1.04
19:00:003.00 °C1009.50 hPa93.00 %2.00 °C1.04
18:45:003.30 °C1009.40 hPa93.00 %2.30 °C1.04
18:30:003.50 °C1009.10 hPa92.00 %2.30 °C1.04
18:15:003.80 °C1009.20 hPa92.00 %2.60 °C1.04
18:00:004.10 °C1009.20 hPa92.00 %2.90 °C1.04
17:45:004.30 °C1009.10 hPa92.00 %3.10 °C1.04
17:30:004.50 °C1009.10 hPa92.00 %3.30 °C1.04
17:15:004.60 °C1009.10 hPa92.00 %3.40 °C1.04
17:00:004.90 °C1008.90 hPa92.00 %3.70 °C1.04
16:45:005.10 °C1008.80 hPa92.00 %3.90 °C1.04
16:30:005.10 °C1008.80 hPa93.00 %4.10 °C1.04
16:15:005.10 °C1008.80 hPa93.00 %4.10 °C1.04
16:00:004.90 °C1008.80 hPa93.00 %3.90 °C1.04
15:45:005.20 °C1008.80 hPa93.00 %4.20 °C1.04
15:30:005.30 °C1008.60 hPa93.00 %4.30 °C1.04
15:15:005.10 °C1008.60 hPa93.00 %4.10 °C1.04
15:00:005.10 °C1008.60 hPa93.00 %4.10 °C1.04
14:45:004.90 °C1008.50 hPa94.00 %4.00 °C1.04
14:30:004.90 °C1008.60 hPa94.00 %4.00 °C1.04
14:15:005.00 °C1008.40 hPa94.00 %4.10 °C1.04
14:00:005.40 °C1008.40 hPa94.00 %4.50 °C1.04
13:45:005.80 °C1008.10 hPa94.00 %4.90 °C1.04
13:30:006.30 °C1008.30 hPa95.00 %5.60 °C1.04
13:15:006.10 °C1008.30 hPa95.00 %5.40 °C1.04
13:00:005.80 °C1008.40 hPa95.00 %5.10 °C1.04
12:45:005.90 °C1008.30 hPa95.00 %5.20 °C1.04
12:30:005.30 °C1008.20 hPa96.00 %4.70 °C1.04
12:15:004.30 °C1008.40 hPa96.00 %3.70 °C1.04
12:00:003.80 °C1008.40 hPa95.00 %3.10 °C1.04
11:45:003.50 °C1008.40 hPa95.00 %2.80 °C1.04
11:30:003.50 °C1008.20 hPa95.00 %2.80 °C1.04
11:15:003.60 °C1008.00 hPa95.00 %2.90 °C1.04
11:00:003.90 °C1007.90 hPa95.00 %3.20 °C1.04
10:45:004.10 °C1008.10 hPa95.00 %3.40 °C1.04
10:30:004.10 °C1007.80 hPa95.00 %3.40 °C1.04
10:15:003.80 °C1007.70 hPa95.00 %3.10 °C1.04
10:00:003.60 °C1007.70 hPa95.00 %2.90 °C1.04
09:45:003.10 °C1007.50 hPa95.00 %2.40 °C1.04
09:30:003.00 °C1007.60 hPa95.00 %2.30 °C1.04
09:15:002.80 °C1007.50 hPa95.00 %2.10 °C1.04
09:00:002.60 °C1007.30 hPa95.00 %1.90 °C1.04
08:45:002.50 °C1007.40 hPa95.00 %1.80 °C1.04
08:30:002.40 °C1007.20 hPa95.00 %1.70 °C1.04
08:15:002.30 °C1007.10 hPa95.00 %1.60 °C1.04
08:00:002.40 °C1007.00 hPa94.00 %1.50 °C1.04
07:45:002.40 °C1007.00 hPa94.00 %1.50 °C1.04
07:30:002.40 °C1006.90 hPa94.00 %1.50 °C1.04
07:15:002.40 °C1006.90 hPa94.00 %1.50 °C1.04
07:00:002.40 °C1006.90 hPa94.00 %1.50 °C1.04
06:45:002.50 °C1006.90 hPa94.00 %1.60 °C1.04
06:30:002.70 °C1006.90 hPa94.00 %1.80 °C1.04
06:15:002.80 °C1006.90 hPa94.00 %1.90 °C1.04
06:00:002.80 °C1006.90 hPa94.00 %1.90 °C0.52
05:45:002.70 °C1006.80 hPa94.00 %1.80 °C 
05:30:002.60 °C1006.90 hPa94.00 %1.70 °C 
05:15:002.60 °C1006.80 hPa94.00 %1.70 °C 
05:00:002.80 °C1006.80 hPa94.00 %1.90 °C 
04:45:002.80 °C1007.10 hPa94.00 %1.90 °C 
04:30:002.80 °C1007.00 hPa94.00 %1.90 °C 
04:15:002.80 °C1006.90 hPa94.00 %1.90 °C 
04:00:002.70 °C1006.90 hPa94.00 %1.80 °C 
03:45:002.60 °C1006.90 hPa94.00 %1.70 °C 
03:30:002.70 °C1007.00 hPa94.00 %1.80 °C 
03:15:002.70 °C1007.20 hPa94.00 %1.80 °C 
03:00:002.70 °C1007.50 hPa94.00 %1.80 °C 
02:45:002.60 °C1007.60 hPa94.00 %1.70 °C 
02:30:002.90 °C1007.60 hPa94.00 %2.00 °C 
02:15:003.10 °C1007.70 hPa94.00 %2.20 °C 
02:00:003.50 °C1007.70 hPa94.00 %2.60 °C 
01:45:003.50 °C1007.70 hPa94.00 %2.60 °C 
01:30:003.50 °C1007.60 hPa94.00 %2.60 °C 
01:15:003.50 °C1007.40 hPa93.00 %2.50 °C 
01:00:003.50 °C1007.60 hPa93.00 %2.50 °C 
00:45:003.50 °C1007.70 hPa93.00 %2.50 °C 
00:30:003.60 °C1007.60 hPa93.00 %2.60 °C 
00:15:003.60 °C1007.60 hPa93.00 %2.60 °C 
00:00:003.60 °C1007.60 hPa93.00 %2.60 °C 

Permanenter Link zu dieser Seite: Wetter im Erzgebirge am 21.10.2016
Performance-Info: Die Erstellung der Seite / Statistik(en) / Tabelle(n) erforderte 5 Datenbankserver-Abfrage(n) und dauerte 117 Millisekunden. (Dieser Messwert ist von der Gesamt-Auslastung des Servers abhängig.)
Erzgebirge - Wetter | Erzgebirge - Wetter (Mobilgeräte) | Komplette Klimadatenbank